sensor_id;sensor_type;location;lat;lon;timestamp;temperature;humidity
64634;DHT22;51043;52.406;9.690;2023-01-23T00:01:16;1.70;99.90
64634;DHT22;51043;52.406;9.690;2023-01-23T00:03:43;1.70;99.90
64634;DHT22;51043;52.406;9.690;2023-01-23T00:06:15;1.70;99.90
64634;DHT22;51043;52.406;9.690;2023-01-23T00:08:44;1.60;99.90
64634;DHT22;51043;52.406;9.690;2023-01-23T00:11:20;1.60;99.90
64634;DHT22;51043;52.406;9.690;2023-01-23T00:13:47;1.60;99.90
64634;DHT22;51043;52.406;9.690;2023-01-23T00:16:17;1.60;99.90
64634;DHT22;51043;52.406;9.690;2023-01-23T00:18:45;1.60;99.90
64634;DHT22;51043;52.406;9.690;2023-01-23T00:21:15;1.60;99.90
64634;DHT22;51043;52.406;9.690;2023-01-23T00:23:46;1.60;99.90
64634;DHT22;51043;52.406;9.690;2023-01-23T00:26:16;1.60;99.90
64634;DHT22;51043;52.406;9.690;2023-01-23T00:28:45;1.60;99.90
64634;DHT22;51043;52.406;9.690;2023-01-23T00:31:14;1.60;99.90
64634;DHT22;51043;52.406;9.690;2023-01-23T00:33:42;1.60;99.90
64634;DHT22;51043;52.406;9.690;2023-01-23T00:36:11;1.60;99.90
64634;DHT22;51043;52.406;9.690;2023-01-23T00:38:39;1.60;99.90
64634;DHT22;51043;52.406;9.690;2023-01-23T00:41:06;1.70;99.90
64634;DHT22;51043;52.406;9.690;2023-01-23T00:43:33;1.70;99.90
64634;DHT22;51043;52.406;9.690;2023-01-23T00:46:00;1.60;99.90
64634;DHT22;51043;52.406;9.690;2023-01-23T00:48:27;1.70;99.90
64634;DHT22;51043;52.406;9.690;2023-01-23T00:50:54;1.70;99.90
64634;DHT22;51043;52.406;9.690;2023-01-23T00:53:22;1.60;99.90
64634;DHT22;51043;52.406;9.690;2023-01-23T00:55:49;1.70;99.90
64634;DHT22;51043;52.406;9.690;2023-01-23T00:58:16;1.70;99.90
64634;DHT22;51043;52.406;9.690;2023-01-23T01:00:44;1.70;99.90
64634;DHT22;51043;52.406;9.690;2023-01-23T01:03:11;1.70;99.90
64634;DHT22;51043;52.406;9.690;2023-01-23T01:05:40;1.70;99.90
64634;DHT22;51043;52.406;9.690;2023-01-23T01:08:07;1.70;99.90
64634;DHT22;51043;52.406;9.690;2023-01-23T01:10:35;1.70;99.90
64634;DHT22;51043;52.406;9.690;2023-01-23T01:13:04;1.70;99.90
64634;DHT22;51043;52.406;9.690;2023-01-23T01:15:31;1.70;99.90
64634;DHT22;51043;52.406;9.690;2023-01-23T01:17:58;1.70;99.90
64634;DHT22;51043;52.406;9.690;2023-01-23T01:20:26;1.70;99.90
64634;DHT22;51043;52.406;9.690;2023-01-23T01:22:56;1.80;99.90
64634;DHT22;51043;52.406;9.690;2023-01-23T01:25:23;1.60;99.90
64634;DHT22;51043;52.406;9.690;2023-01-23T01:27:53;1.70;99.90
64634;DHT22;51043;52.406;9.690;2023-01-23T01:30:22;1.70;99.90
64634;DHT22;51043;52.406;9.690;2023-01-23T01:32:51;1.70;99.90
64634;DHT22;51043;52.406;9.690;2023-01-23T01:35:19;1.70;99.90
64634;DHT22;51043;52.406;9.690;2023-01-23T01:37:47;1.70;99.90
64634;DHT22;51043;52.406;9.690;2023-01-23T01:40:21;1.70;99.90
64634;DHT22;51043;52.406;9.690;2023-01-23T01:42:59;1.70;99.90
64634;DHT22;51043;52.406;9.690;2023-01-23T01:46:00;1.70;99.90
64634;DHT22;51043;52.406;9.690;2023-01-23T01:51:06;1.70;99.90
64634;DHT22;51043;52.406;9.690;2023-01-23T01:53:35;1.50;99.90
64634;DHT22;51043;52.406;9.690;2023-01-23T01:56:03;1.70;99.90
64634;DHT22;51043;52.406;9.690;2023-01-23T01:58:31;1.70;99.90
64634;DHT22;51043;52.406;9.690;2023-01-23T02:00:59;1.70;99.90
64634;DHT22;51043;52.406;9.690;2023-01-23T02:03:26;1.70;99.90
64634;DHT22;51043;52.406;9.690;2023-01-23T02:05:53;1.70;99.90
64634;DHT22;51043;52.406;9.690;2023-01-23T02:10:50;1.70;99.90
64634;DHT22;51043;52.406;9.690;2023-01-23T02:16:02;1.70;99.90
64634;DHT22;51043;52.406;9.690;2023-01-23T02:18:31;1.70;99.90
64634;DHT22;51043;52.406;9.690;2023-01-23T02:21:02;1.70;99.90
64634;DHT22;51043;52.406;9.690;2023-01-23T02:26:27;1.70;99.90
64634;DHT22;51043;52.406;9.690;2023-01-23T02:28:55;1.70;99.90
64634;DHT22;51043;52.406;9.690;2023-01-23T02:31:26;1.70;99.90
64634;DHT22;51043;52.406;9.690;2023-01-23T02:33:55;1.80;99.90
64634;DHT22;51043;52.406;9.690;2023-01-23T02:36:26;1.70;99.90
64634;DHT22;51043;52.406;9.690;2023-01-23T02:39:00;1.70;99.90
64634;DHT22;51043;52.406;9.690;2023-01-23T02:41:48;1.70;99.90
64634;DHT22;51043;52.406;9.690;2023-01-23T02:44:23;1.70;99.90
64634;DHT22;51043;52.406;9.690;2023-01-23T02:47:06;1.70;99.90
64634;DHT22;51043;52.406;9.690;2023-01-23T02:49:38;1.70;99.90
64634;DHT22;51043;52.406;9.690;2023-01-23T02:52:07;1.70;99.90
64634;DHT22;51043;52.406;9.690;2023-01-23T02:54:35;1.80;99.90
64634;DHT22;51043;52.406;9.690;2023-01-23T02:57:02;1.70;99.90
64634;DHT22;51043;52.406;9.690;2023-01-23T02:59:30;1.70;99.90
64634;DHT22;51043;52.406;9.690;2023-01-23T03:02:16;1.70;99.90
64634;DHT22;51043;52.406;9.690;2023-01-23T03:04:43;1.70;99.90
64634;DHT22;51043;52.406;9.690;2023-01-23T03:07:10;1.80;99.90
64634;DHT22;51043;52.406;9.690;2023-01-23T03:09:37;1.70;99.90
64634;DHT22;51043;52.406;9.690;2023-01-23T03:12:04;1.80;99.90
64634;DHT22;51043;52.406;9.690;2023-01-23T03:14:31;1.80;99.90
64634;DHT22;51043;52.406;9.690;2023-01-23T03:16:59;1.70;99.90
64634;DHT22;51043;52.406;9.690;2023-01-23T03:19:32;1.70;99.90
64634;DHT22;51043;52.406;9.690;2023-01-23T03:21:59;1.80;99.90
64634;DHT22;51043;52.406;9.690;2023-01-23T03:24:26;1.80;99.90
64634;DHT22;51043;52.406;9.690;2023-01-23T03:26:53;1.70;99.90
64634;DHT22;51043;52.406;9.690;2023-01-23T03:29:24;1.80;99.90
64634;DHT22;51043;52.406;9.690;2023-01-23T03:32:13;1.80;99.90
64634;DHT22;51043;52.406;9.690;2023-01-23T03:34:42;1.70;99.90
64634;DHT22;51043;52.406;9.690;2023-01-23T03:37:10;1.80;99.90
64634;DHT22;51043;52.406;9.690;2023-01-23T03:39:38;1.70;99.90
64634;DHT22;51043;52.406;9.690;2023-01-23T03:42:25;1.80;99.90
64634;DHT22;51043;52.406;9.690;2023-01-23T03:44:54;1.70;99.90
64634;DHT22;51043;52.406;9.690;2023-01-23T03:47:24;1.70;99.90
64634;DHT22;51043;52.406;9.690;2023-01-23T03:49:53;1.70;99.90
64634;DHT22;51043;52.406;9.690;2023-01-23T03:52:20;1.80;99.90
64634;DHT22;51043;52.406;9.690;2023-01-23T03:54:50;1.70;99.90
64634;DHT22;51043;52.406;9.690;2023-01-23T03:57:17;1.80;99.90
64634;DHT22;51043;52.406;9.690;2023-01-23T04:00:11;1.70;99.90
64634;DHT22;51043;52.406;9.690;2023-01-23T04:02:39;1.70;99.90
64634;DHT22;51043;52.406;9.690;2023-01-23T04:05:44;1.70;99.90
64634;DHT22;51043;52.406;9.690;2023-01-23T04:08:11;1.90;99.90
64634;DHT22;51043;52.406;9.690;2023-01-23T04:10:38;1.80;99.90
64634;DHT22;51043;52.406;9.690;2023-01-23T04:13:12;1.70;99.90
64634;DHT22;51043;52.406;9.690;2023-01-23T04:15:39;1.70;99.90
64634;DHT22;51043;52.406;9.690;2023-01-23T04:18:06;1.80;99.90
64634;DHT22;51043;52.406;9.690;2023-01-23T04:20:33;1.80;99.90
64634;DHT22;51043;52.406;9.690;2023-01-23T04:23:00;1.70;99.90
64634;DHT22;51043;52.406;9.690;2023-01-23T04:25:28;1.70;99.90
64634;DHT22;51043;52.406;9.690;2023-01-23T04:27:55;1.80;99.90
64634;DHT22;51043;52.406;9.690;2023-01-23T04:30:22;1.80;99.90
64634;DHT22;51043;52.406;9.690;2023-01-23T04:32:50;1.80;99.90
64634;DHT22;51043;52.406;9.690;2023-01-23T04:35:18;1.80;99.90
64634;DHT22;51043;52.406;9.690;2023-01-23T04:37:46;1.80;99.90
64634;DHT22;51043;52.406;9.690;2023-01-23T04:40:13;1.80;99.90
64634;DHT22;51043;52.406;9.690;2023-01-23T04:42:50;1.80;99.90
64634;DHT22;51043;52.406;9.690;2023-01-23T04:45:32;1.70;99.90
64634;DHT22;51043;52.406;9.690;2023-01-23T04:48:27;1.80;99.90
64634;DHT22;51043;52.406;9.690;2023-01-23T04:50:54;1.80;99.90
64634;DHT22;51043;52.406;9.690;2023-01-23T04:53:22;1.80;99.90
64634;DHT22;51043;52.406;9.690;2023-01-23T04:55:56;1.70;99.90
64634;DHT22;51043;52.406;9.690;2023-01-23T04:58:23;1.80;99.90
64634;DHT22;51043;52.406;9.690;2023-01-23T05:00:50;1.80;99.90
64634;DHT22;51043;52.406;9.690;2023-01-23T05:03:23;1.80;99.90
64634;DHT22;51043;52.406;9.690;2023-01-23T05:05:51;1.70;99.90
64634;DHT22;51043;52.406;9.690;2023-01-23T05:08:18;1.70;99.90
64634;DHT22;51043;52.406;9.690;2023-01-23T05:10:53;1.70;99.90
64634;DHT22;51043;52.406;9.690;2023-01-23T05:13:21;1.70;99.90
64634;DHT22;51043;52.406;9.690;2023-01-23T05:15:48;1.70;99.90
64634;DHT22;51043;52.406;9.690;2023-01-23T05:18:16;1.70;99.90
64634;DHT22;51043;52.406;9.690;2023-01-23T05:20:59;1.70;99.90
64634;DHT22;51043;52.406;9.690;2023-01-23T05:23:26;1.60;99.90
64634;DHT22;51043;52.406;9.690;2023-01-23T05:25:53;1.70;99.90
64634;DHT22;51043;52.406;9.690;2023-01-23T05:28:22;1.70;99.90
64634;DHT22;51043;52.406;9.690;2023-01-23T05:30:53;1.70;99.90
64634;DHT22;51043;52.406;9.690;2023-01-23T05:33:38;1.70;99.90
64634;DHT22;51043;52.406;9.690;2023-01-23T05:36:06;1.70;99.90
64634;DHT22;51043;52.406;9.690;2023-01-23T05:38:33;1.70;99.90
64634;DHT22;51043;52.406;9.690;2023-01-23T05:41:02;1.70;99.90
64634;DHT22;51043;52.406;9.690;2023-01-23T05:43:47;1.70;99.90
64634;DHT22;51043;52.406;9.690;2023-01-23T05:46:35;1.70;99.90
64634;DHT22;51043;52.406;9.690;2023-01-23T05:49:02;1.70;99.90
64634;DHT22;51043;52.406;9.690;2023-01-23T05:51:30;1.80;99.90
64634;DHT22;51043;52.406;9.690;2023-01-23T05:54:00;1.70;99.90
64634;DHT22;51043;52.406;9.690;2023-01-23T05:56:28;1.60;99.90
64634;DHT22;51043;52.406;9.690;2023-01-23T05:59:14;1.60;99.90
64634;DHT22;51043;52.406;9.690;2023-01-23T06:01:46;1.60;99.90
64634;DHT22;51043;52.406;9.690;2023-01-23T06:04:52;1.60;99.90
64634;DHT22;51043;52.406;9.690;2023-01-23T06:07:34;1.60;99.90
64634;DHT22;51043;52.406;9.690;2023-01-23T06:10:06;1.60;99.90
64634;DHT22;51043;52.406;9.690;2023-01-23T06:12:35;1.70;99.90
64634;DHT22;51043;52.406;9.690;2023-01-23T06:15:03;1.60;99.90
64634;DHT22;51043;52.406;9.690;2023-01-23T06:17:30;1.60;99.90
64634;DHT22;51043;52.406;9.690;2023-01-23T06:19:58;1.70;99.90
64634;DHT22;51043;52.406;9.690;2023-01-23T06:22:25;1.60;99.90
64634;DHT22;51043;52.406;9.690;2023-01-23T06:25:09;1.60;99.90
64634;DHT22;51043;52.406;9.690;2023-01-23T06:27:37;1.60;99.90
64634;DHT22;51043;52.406;9.690;2023-01-23T06:30:07;1.70;99.90
64634;DHT22;51043;52.406;9.690;2023-01-23T06:32:38;1.70;99.90
64634;DHT22;51043;52.406;9.690;2023-01-23T06:35:07;1.60;99.90
64634;DHT22;51043;52.406;9.690;2023-01-23T06:37:37;1.60;99.90
64634;DHT22;51043;52.406;9.690;2023-01-23T06:40:07;1.70;99.90
64634;DHT22;51043;52.406;9.690;2023-01-23T06:42:41;1.60;99.90
64634;DHT22;51043;52.406;9.690;2023-01-23T06:45:10;1.60;99.90
64634;DHT22;51043;52.406;9.690;2023-01-23T06:47:37;1.60;99.90
64634;DHT22;51043;52.406;9.690;2023-01-23T06:50:04;1.50;99.90
64634;DHT22;51043;52.406;9.690;2023-01-23T06:52:35;1.50;99.90
64634;DHT22;51043;52.406;9.690;2023-01-23T06:55:03;1.50;99.90
64634;DHT22;51043;52.406;9.690;2023-01-23T06:57:32;1.50;99.90
64634;DHT22;51043;52.406;9.690;2023-01-23T07:00:00;1.60;99.90
64634;DHT22;51043;52.406;9.690;2023-01-23T07:02:29;1.60;99.90
64634;DHT22;51043;52.406;9.690;2023-01-23T07:04:56;1.60;99.90
64634;DHT22;51043;52.406;9.690;2023-01-23T07:07:24;1.60;99.90
64634;DHT22;51043;52.406;9.690;2023-01-23T07:09:53;1.50;99.90
64634;DHT22;51043;52.406;9.690;2023-01-23T07:12:24;1.50;99.90
64634;DHT22;51043;52.406;9.690;2023-01-23T07:14:51;1.50;99.90
64634;DHT22;51043;52.406;9.690;2023-01-23T07:17:24;1.50;99.90
64634;DHT22;51043;52.406;9.690;2023-01-23T07:19:51;1.50;99.90
64634;DHT22;51043;52.406;9.690;2023-01-23T07:22:20;1.50;99.90
64634;DHT22;51043;52.406;9.690;2023-01-23T07:24:47;1.60;99.90
64634;DHT22;51043;52.406;9.690;2023-01-23T07:27:14;1.60;99.90
64634;DHT22;51043;52.406;9.690;2023-01-23T07:29:42;1.60;99.90
64634;DHT22;51043;52.406;9.690;2023-01-23T07:32:09;1.60;99.90
64634;DHT22;51043;52.406;9.690;2023-01-23T07:34:37;1.50;99.90
64634;DHT22;51043;52.406;9.690;2023-01-23T07:37:04;1.50;99.90
64634;DHT22;51043;52.406;9.690;2023-01-23T07:39:32;1.50;99.90
64634;DHT22;51043;52.406;9.690;2023-01-23T07:41:59;1.50;99.90
64634;DHT22;51043;52.406;9.690;2023-01-23T07:44:27;1.50;99.90
64634;DHT22;51043;52.406;9.690;2023-01-23T07:46:55;1.60;99.90
64634;DHT22;51043;52.406;9.690;2023-01-23T07:49:23;1.50;99.90
64634;DHT22;51043;52.406;9.690;2023-01-23T07:51:50;1.50;99.90
64634;DHT22;51043;52.406;9.690;2023-01-23T07:54:17;1.50;99.90
64634;DHT22;51043;52.406;9.690;2023-01-23T07:56:44;1.50;99.90
64634;DHT22;51043;52.406;9.690;2023-01-23T07:59:12;1.60;99.90
64634;DHT22;51043;52.406;9.690;2023-01-23T08:01:39;1.60;99.90
64634;DHT22;51043;52.406;9.690;2023-01-23T08:04:06;1.70;99.90
64634;DHT22;51043;52.406;9.690;2023-01-23T08:06:33;1.70;99.90
64634;DHT22;51043;52.406;9.690;2023-01-23T08:09:00;1.70;99.90
64634;DHT22;51043;52.406;9.690;2023-01-23T08:11:27;1.70;99.90
64634;DHT22;51043;52.406;9.690;2023-01-23T08:13:55;1.80;99.90
64634;DHT22;51043;52.406;9.690;2023-01-23T08:16:22;1.80;99.90
64634;DHT22;51043;52.406;9.690;2023-01-23T08:18:50;1.70;99.90
64634;DHT22;51043;52.406;9.690;2023-01-23T08:21:17;1.70;99.90
64634;DHT22;51043;52.406;9.690;2023-01-23T08:23:44;1.70;99.90
64634;DHT22;51043;52.406;9.690;2023-01-23T08:26:13;1.70;99.90
64634;DHT22;51043;52.406;9.690;2023-01-23T08:28:41;1.70;99.90
64634;DHT22;51043;52.406;9.690;2023-01-23T08:31:10;1.70;99.90
64634;DHT22;51043;52.406;9.690;2023-01-23T08:33:37;1.80;99.90
64634;DHT22;51043;52.406;9.690;2023-01-23T08:36:05;1.80;99.90
64634;DHT22;51043;52.406;9.690;2023-01-23T08:38:35;1.70;99.90
64634;DHT22;51043;52.406;9.690;2023-01-23T08:41:02;1.70;99.90
64634;DHT22;51043;52.406;9.690;2023-01-23T08:43:30;1.70;99.90
64634;DHT22;51043;52.406;9.690;2023-01-23T08:45:58;1.70;99.90
64634;DHT22;51043;52.406;9.690;2023-01-23T08:48:26;1.80;99.90
64634;DHT22;51043;52.406;9.690;2023-01-23T08:51:01;1.80;99.90
64634;DHT22;51043;52.406;9.690;2023-01-23T08:53:30;1.80;99.90
64634;DHT22;51043;52.406;9.690;2023-01-23T08:55:59;1.90;99.90
64634;DHT22;51043;52.406;9.690;2023-01-23T08:58:26;1.90;99.90
64634;DHT22;51043;52.406;9.690;2023-01-23T09:00:54;1.90;99.90
64634;DHT22;51043;52.406;9.690;2023-01-23T09:03:21;1.90;99.90
64634;DHT22;51043;52.406;9.690;2023-01-23T09:05:48;1.90;99.90
64634;DHT22;51043;52.406;9.690;2023-01-23T09:08:15;1.90;99.90
64634;DHT22;51043;52.406;9.690;2023-01-23T09:10:42;1.90;99.90
64634;DHT22;51043;52.406;9.690;2023-01-23T09:13:09;1.90;99.90
64634;DHT22;51043;52.406;9.690;2023-01-23T09:15:38;1.90;99.90
64634;DHT22;51043;52.406;9.690;2023-01-23T09:18:05;1.90;99.90
64634;DHT22;51043;52.406;9.690;2023-01-23T09:20:32;2.00;99.90
64634;DHT22;51043;52.406;9.690;2023-01-23T09:22:59;2.00;99.90
64634;DHT22;51043;52.406;9.690;2023-01-23T09:25:26;2.00;99.90
64634;DHT22;51043;52.406;9.690;2023-01-23T09:27:53;2.30;99.90
64634;DHT22;51043;52.406;9.690;2023-01-23T09:30:20;2.10;99.90
64634;DHT22;51043;52.406;9.690;2023-01-23T09:32:48;2.10;99.90
64634;DHT22;51043;52.406;9.690;2023-01-23T09:35:15;2.10;99.90
64634;DHT22;51043;52.406;9.690;2023-01-23T09:37:41;2.20;99.90
64634;DHT22;51043;52.406;9.690;2023-01-23T09:43:10;2.10;99.90
64634;DHT22;51043;52.406;9.690;2023-01-23T09:45:40;2.10;99.90
64634;DHT22;51043;52.406;9.690;2023-01-23T09:51:05;2.20;99.90
64634;DHT22;51043;52.406;9.690;2023-01-23T09:53:38;2.20;99.90
64634;DHT22;51043;52.406;9.690;2023-01-23T09:56:23;2.20;99.90
64634;DHT22;51043;52.406;9.690;2023-01-23T09:59:02;2.20;99.90
64634;DHT22;51043;52.406;9.690;2023-01-23T10:01:32;2.30;99.90
64634;DHT22;51043;52.406;9.690;2023-01-23T10:03:59;2.30;99.90
64634;DHT22;51043;52.406;9.690;2023-01-23T10:06:39;2.30;99.90
64634;DHT22;51043;52.406;9.690;2023-01-23T10:09:22;2.30;99.90
64634;DHT22;51043;52.406;9.690;2023-01-23T10:14:57;2.30;99.90
64634;DHT22;51043;52.406;9.690;2023-01-23T10:23:46;2.40;99.90
64634;DHT22;51043;52.406;9.690;2023-01-23T10:26:23;2.40;99.90
64634;DHT22;51043;52.406;9.690;2023-01-23T10:29:02;2.30;99.90
64634;DHT22;51043;52.406;9.690;2023-01-23T10:31:45;2.30;99.90
64634;DHT22;51043;52.406;9.690;2023-01-23T10:34:34;2.30;99.90
64634;DHT22;51043;52.406;9.690;2023-01-23T10:39:54;2.40;99.90
64634;DHT22;51043;52.406;9.690;2023-01-23T10:42:25;2.40;99.90
64634;DHT22;51043;52.406;9.690;2023-01-23T10:44:53;2.40;99.90
64634;DHT22;51043;52.406;9.690;2023-01-23T10:47:36;2.40;99.90
64634;DHT22;51043;52.406;9.690;2023-01-23T10:50:05;2.30;99.90
64634;DHT22;51043;52.406;9.690;2023-01-23T10:52:44;2.30;99.90
64634;DHT22;51043;52.406;9.690;2023-01-23T10:57:46;2.20;99.90
64634;DHT22;51043;52.406;9.690;2023-01-23T11:05:52;2.20;99.90
64634;DHT22;51043;52.406;9.690;2023-01-23T11:08:41;2.30;99.90
64634;DHT22;51043;52.406;9.690;2023-01-23T11:13:44;2.40;99.90
64634;DHT22;51043;52.406;9.690;2023-01-23T11:16:13;2.40;99.90
64634;DHT22;51043;52.406;9.690;2023-01-23T11:19:25;2.30;99.90
64634;DHT22;51043;52.406;9.690;2023-01-23T11:21:35;2.40;99.90
64634;DHT22;51043;52.406;9.690;2023-01-23T11:29:57;2.30;99.90
64634;DHT22;51043;52.406;9.690;2023-01-23T11:32:24;2.30;99.90
64634;DHT22;51043;52.406;9.690;2023-01-23T11:35:02;2.30;99.90
64634;DHT22;51043;52.406;9.690;2023-01-23T11:37:36;2.40;99.90
64634;DHT22;51043;52.406;9.690;2023-01-23T11:40:19;2.50;99.90
64634;DHT22;51043;52.406;9.690;2023-01-23T11:42:46;2.50;99.90
64634;DHT22;51043;52.406;9.690;2023-01-23T11:54:09;2.40;99.90
64634;DHT22;51043;52.406;9.690;2023-01-23T11:56:59;2.50;99.90
64634;DHT22;51043;52.406;9.690;2023-01-23T11:59:52;2.50;99.90
64634;DHT22;51043;52.406;9.690;2023-01-23T12:11:13;2.60;99.90
64634;DHT22;51043;52.406;9.690;2023-01-23T12:22:30;2.50;99.90
64634;DHT22;51043;52.406;9.690;2023-01-23T12:27:56;2.40;99.90
64634;DHT22;51043;52.406;9.690;2023-01-23T12:33:00;2.40;99.90
64634;DHT22;51043;52.406;9.690;2023-01-23T12:35:39;2.50;99.90
64634;DHT22;51043;52.406;9.690;2023-01-23T12:38:57;2.50;99.90
64634;DHT22;51043;52.406;9.690;2023-01-23T12:44:06;2.40;99.90
64634;DHT22;51043;52.406;9.690;2023-01-23T12:49:28;2.40;99.90
64634;DHT22;51043;52.406;9.690;2023-01-23T12:52:07;2.40;99.90
64634;DHT22;51043;52.406;9.690;2023-01-23T12:54:50;2.40;99.90
64634;DHT22;51043;52.406;9.690;2023-01-23T12:57:21;2.50;99.90
64634;DHT22;51043;52.406;9.690;2023-01-23T13:00:28;2.50;99.90
64634;DHT22;51043;52.406;9.690;2023-01-23T13:03:07;2.60;99.90
64634;DHT22;51043;52.406;9.690;2023-01-23T13:08:39;2.60;99.90
64634;DHT22;51043;52.406;9.690;2023-01-23T13:14:35;2.60;99.90
64634;DHT22;51043;52.406;9.690;2023-01-23T13:17:41;2.70;99.90
64634;DHT22;51043;52.406;9.690;2023-01-23T13:23:29;2.70;99.90
64634;DHT22;51043;52.406;9.690;2023-01-23T13:28:49;2.80;99.90
64634;DHT22;51043;52.406;9.690;2023-01-23T13:36:51;2.90;99.90
64634;DHT22;51043;52.406;9.690;2023-01-23T13:39:27;3.00;99.90
64634;DHT22;51043;52.406;9.690;2023-01-23T13:51:18;2.80;99.90
64634;DHT22;51043;52.406;9.690;2023-01-23T13:53:59;2.70;99.90
64634;DHT22;51043;52.406;9.690;2023-01-23T13:57:00;2.70;99.90
64634;DHT22;51043;52.406;9.690;2023-01-23T13:59:46;2.70;99.90
64634;DHT22;51043;52.406;9.690;2023-01-23T14:02:40;2.60;99.90
64634;DHT22;51043;52.406;9.690;2023-01-23T14:05:41;2.60;99.90
64634;DHT22;51043;52.406;9.690;2023-01-23T14:08:22;2.60;99.90
64634;DHT22;51043;52.406;9.690;2023-01-23T14:11:15;2.50;99.90
64634;DHT22;51043;52.406;9.690;2023-01-23T14:14:00;2.50;99.90
64634;DHT22;51043;52.406;9.690;2023-01-23T14:17:00;2.50;99.90
64634;DHT22;51043;52.406;9.690;2023-01-23T14:20:04;2.60;99.90
64634;DHT22;51043;52.406;9.690;2023-01-23T14:22:48;2.60;99.90
64634;DHT22;51043;52.406;9.690;2023-01-23T14:25:18;2.60;99.90
64634;DHT22;51043;52.406;9.690;2023-01-23T14:27:45;2.60;99.90
64634;DHT22;51043;52.406;9.690;2023-01-23T14:30:24;2.60;99.90
64634;DHT22;51043;52.406;9.690;2023-01-23T14:32:53;2.60;99.90
64634;DHT22;51043;52.406;9.690;2023-01-23T14:37:54;2.60;99.90
64634;DHT22;51043;52.406;9.690;2023-01-23T14:40:23;2.60;99.90
64634;DHT22;51043;52.406;9.690;2023-01-23T14:43:02;2.50;99.90
64634;DHT22;51043;52.406;9.690;2023-01-23T14:45:32;2.50;99.90
64634;DHT22;51043;52.406;9.690;2023-01-23T14:48:00;2.40;99.90
64634;DHT22;51043;52.406;9.690;2023-01-23T14:50:32;2.30;99.90
64634;DHT22;51043;52.406;9.690;2023-01-23T14:53:02;2.30;99.90
64634;DHT22;51043;52.406;9.690;2023-01-23T14:55:36;2.20;99.90
64634;DHT22;51043;52.406;9.690;2023-01-23T14:58:05;2.20;99.90
64634;DHT22;51043;52.406;9.690;2023-01-23T15:00:34;2.10;99.90
64634;DHT22;51043;52.406;9.690;2023-01-23T15:03:02;2.10;99.90
64634;DHT22;51043;52.406;9.690;2023-01-23T15:05:30;2.10;99.90
64634;DHT22;51043;52.406;9.690;2023-01-23T15:08:19;2.10;99.90
64634;DHT22;51043;52.406;9.690;2023-01-23T15:10:47;2.10;99.90
64634;DHT22;51043;52.406;9.690;2023-01-23T15:16:18;2.10;99.90
64634;DHT22;51043;52.406;9.690;2023-01-23T15:18:53;2.10;99.90
64634;DHT22;51043;52.406;9.690;2023-01-23T15:21:32;2.10;99.90
64634;DHT22;51043;52.406;9.690;2023-01-23T15:26:41;2.10;99.90
64634;DHT22;51043;52.406;9.690;2023-01-23T15:37:26;2.00;99.90
64634;DHT22;51043;52.406;9.690;2023-01-23T15:39:58;2.00;99.90
64634;DHT22;51043;52.406;9.690;2023-01-23T15:42:32;2.00;99.90
64634;DHT22;51043;52.406;9.690;2023-01-23T15:45:00;2.00;99.90
64634;DHT22;51043;52.406;9.690;2023-01-23T15:47:28;1.90;99.90
64634;DHT22;51043;52.406;9.690;2023-01-23T15:49:56;2.00;99.90
64634;DHT22;51043;52.406;9.690;2023-01-23T15:52:43;2.00;99.90
64634;DHT22;51043;52.406;9.690;2023-01-23T15:55:13;2.00;99.90
64634;DHT22;51043;52.406;9.690;2023-01-23T15:57:41;2.10;99.90
64634;DHT22;51043;52.406;9.690;2023-01-23T16:00:23;2.10;99.90
64634;DHT22;51043;52.406;9.690;2023-01-23T16:02:52;2.10;99.90
64634;DHT22;51043;52.406;9.690;2023-01-23T16:05:25;2.20;99.90
64634;DHT22;51043;52.406;9.690;2023-01-23T16:07:53;2.10;99.90
64634;DHT22;51043;52.406;9.690;2023-01-23T16:10:26;2.10;99.90
64634;DHT22;51043;52.406;9.690;2023-01-23T16:12:56;2.10;99.90
64634;DHT22;51043;52.406;9.690;2023-01-23T16:15:28;2.10;99.90
64634;DHT22;51043;52.406;9.690;2023-01-23T16:17:56;2.10;99.90
64634;DHT22;51043;52.406;9.690;2023-01-23T16:20:32;2.00;99.90
64634;DHT22;51043;52.406;9.690;2023-01-23T16:23:21;2.10;99.90
64634;DHT22;51043;52.406;9.690;2023-01-23T16:25:50;2.10;99.90
64634;DHT22;51043;52.406;9.690;2023-01-23T16:28:20;2.10;99.90
64634;DHT22;51043;52.406;9.690;2023-01-23T16:30:49;2.10;99.90
64634;DHT22;51043;52.406;9.690;2023-01-23T16:33:18;2.10;99.90
64634;DHT22;51043;52.406;9.690;2023-01-23T16:35:45;2.10;99.90
64634;DHT22;51043;52.406;9.690;2023-01-23T16:38:24;2.10;99.90
64634;DHT22;51043;52.406;9.690;2023-01-23T16:40:53;2.10;99.90
64634;DHT22;51043;52.406;9.690;2023-01-23T16:43:21;2.00;99.90
64634;DHT22;51043;52.406;9.690;2023-01-23T16:45:48;2.10;99.90
64634;DHT22;51043;52.406;9.690;2023-01-23T16:48:15;2.10;99.90
64634;DHT22;51043;52.406;9.690;2023-01-23T16:50:55;2.20;99.90
64634;DHT22;51043;52.406;9.690;2023-01-23T16:53:25;2.10;99.90
64634;DHT22;51043;52.406;9.690;2023-01-23T16:55:55;2.10;99.90
64634;DHT22;51043;52.406;9.690;2023-01-23T16:58:26;2.10;99.90
64634;DHT22;51043;52.406;9.690;2023-01-23T17:00:59;2.10;99.90
64634;DHT22;51043;52.406;9.690;2023-01-23T17:03:31;2.10;99.90
64634;DHT22;51043;52.406;9.690;2023-01-23T17:05:58;2.10;99.90
64634;DHT22;51043;52.406;9.690;2023-01-23T17:08:26;2.10;99.90
64634;DHT22;51043;52.406;9.690;2023-01-23T17:10:58;2.10;99.90
64634;DHT22;51043;52.406;9.690;2023-01-23T17:13:27;2.10;99.90
64634;DHT22;51043;52.406;9.690;2023-01-23T17:15:56;2.10;99.90
64634;DHT22;51043;52.406;9.690;2023-01-23T17:18:27;2.10;99.90
64634;DHT22;51043;52.406;9.690;2023-01-23T17:20:55;2.10;99.90
64634;DHT22;51043;52.406;9.690;2023-01-23T17:23:23;2.10;99.90
64634;DHT22;51043;52.406;9.690;2023-01-23T17:25:51;2.10;99.90
64634;DHT22;51043;52.406;9.690;2023-01-23T17:28:26;2.10;99.90
64634;DHT22;51043;52.406;9.690;2023-01-23T17:30:53;2.10;99.90
64634;DHT22;51043;52.406;9.690;2023-01-23T17:33:23;2.10;99.90
64634;DHT22;51043;52.406;9.690;2023-01-23T17:35:51;2.10;99.90
64634;DHT22;51043;52.406;9.690;2023-01-23T17:38:24;2.00;99.90
64634;DHT22;51043;52.406;9.690;2023-01-23T17:40:55;2.10;99.90
64634;DHT22;51043;52.406;9.690;2023-01-23T17:43:22;2.10;99.90
64634;DHT22;51043;52.406;9.690;2023-01-23T17:45:50;2.10;99.90
64634;DHT22;51043;52.406;9.690;2023-01-23T17:48:26;2.00;99.90
64634;DHT22;51043;52.406;9.690;2023-01-23T17:50:54;2.10;99.90
64634;DHT22;51043;52.406;9.690;2023-01-23T17:53:21;2.10;99.90
64634;DHT22;51043;52.406;9.690;2023-01-23T17:55:50;2.10;99.90
64634;DHT22;51043;52.406;9.690;2023-01-23T17:58:19;2.10;99.90
64634;DHT22;51043;52.406;9.690;2023-01-23T18:00:48;2.10;99.90
64634;DHT22;51043;52.406;9.690;2023-01-23T18:03:20;2.10;99.90
64634;DHT22;51043;52.406;9.690;2023-01-23T18:05:48;2.10;99.90
64634;DHT22;51043;52.406;9.690;2023-01-23T18:08:17;2.00;99.90
64634;DHT22;51043;52.406;9.690;2023-01-23T18:10:46;2.00;99.90
64634;DHT22;51043;52.406;9.690;2023-01-23T18:18:38;2.10;99.90
64634;DHT22;51043;52.406;9.690;2023-01-23T18:21:14;2.10;99.90
64634;DHT22;51043;52.406;9.690;2023-01-23T18:23:43;2.10;99.90
64634;DHT22;51043;52.406;9.690;2023-01-23T18:26:32;2.00;99.90